Time;durP1;ratioP1;P1;durP2;ratioP2;P2;SDS_P1;SDS_P2;PMS_P1;PMS_P2;Temp;Humidity;BMP_temperature;BMP_pressure;BME280_temperature;BME280_humidity;BME280_pressure;Samples;Min_cycle;Max_cycle;Signal;HPM_P1;HPM_P2
2023/07/05 00:00:46;;;;;;;10.00;3.90;;;15.40;99.90;;;;;;5035438;28;20049;-67
2023/07/05 00:03:14;;;;;;;11.25;3.63;;;15.30;99.90;;;;;;5034727;28;20371;-68
2023/07/05 00:05:40;;;;;;;12.73;3.95;;;15.30;99.90;;;;;;5035189;28;20081;-67
2023/07/05 00:08:06;;;;;;;8.70;3.95;;;15.30;99.90;;;;;;5034703;28;20081;-73
2023/07/05 00:10:32;;;;;;;9.75;3.65;;;15.30;99.90;;;;;;5034033;28;20084;-68
2023/07/05 00:12:59;;;;;;;12.02;4.38;;;15.30;99.90;;;;;;5034445;28;20048;-70
2023/07/05 00:15:26;;;;;;;8.93;3.85;;;15.20;99.90;;;;;;5033163;28;20049;-68
2023/07/05 00:17:52;;;;;;;7.85;4.07;;;15.30;99.90;;;;;;5034844;28;20052;-67
2023/07/05 00:20:19;;;;;;;8.52;3.78;;;15.40;99.90;;;;;;5033450;28;20450;-67
2023/07/05 00:22:45;;;;;;;10.15;4.45;;;15.30;99.90;;;;;;5034840;28;20081;-67
2023/07/05 00:25:11;;;;;;;11.82;4.25;;;15.30;99.90;;;;;;5034351;28;20054;-68
2023/07/05 00:27:37;;;;;;;9.50;4.80;;;15.20;99.90;;;;;;5034655;28;20434;-68
2023/07/05 00:30:03;;;;;;;11.23;4.00;;;15.20;99.90;;;;;;5034366;28;20041;-68
2023/07/05 00:32:28;;;;;;;9.55;4.22;;;15.20;99.90;;;;;;5034213;28;20124;-68
2023/07/05 00:34:54;;;;;;;9.77;4.60;;;15.10;99.90;;;;;;5034456;28;20136;-67
2023/07/05 00:37:20;;;;;;;11.38;4.40;;;15.10;99.90;;;;;;5032948;28;20128;-67
2023/07/05 00:39:46;;;;;;;11.18;4.95;;;15.10;99.90;;;;;;5034560;28;20441;-67
2023/07/05 00:42:12;;;;;;;14.60;5.57;;;15.10;99.90;;;;;;5016657;28;20088;-69
2023/07/05 00:44:38;;;;;;;9.43;5.18;;;15.00;99.90;;;;;;5034564;28;20045;-68
2023/07/05 00:47:25;;;;;;;9.20;5.38;;;15.00;99.90;;;;;;5034095;28;20141;-67
2023/07/05 00:49:52;;;;;;;10.80;5.43;;;15.00;99.90;;;;;;5034262;28;20144;-68
2023/07/05 00:52:18;;;;;;;10.95;5.53;;;14.90;99.90;;;;;;5033833;28;20167;-68
2023/07/05 00:54:49;;;;;;;9.45;5.40;;;15.00;99.90;;;;;;5033795;28;20057;-68
2023/07/05 00:57:27;;;;;;;11.18;5.07;;;14.90;99.90;;;;;;5032741;28;20499;-68
2023/07/05 00:59:57;;;;;;;8.98;5.38;;;14.90;99.90;;;;;;5017066;28;20143;-67
2023/07/05 01:02:23;;;;;;;12.10;5.82;;;14.90;99.90;;;;;;5032544;28;20060;-68
2023/07/05 01:04:49;;;;;;;11.38;5.20;;;14.90;99.90;;;;;;5033095;28;20061;-68
2023/07/05 01:07:15;;;;;;;14.00;6.03;;;14.90;99.90;;;;;;5033658;28;20045;-68
2023/07/05 01:09:42;;;;;;;12.07;5.25;;;14.90;99.90;;;;;;5033978;28;20344;-68
2023/07/05 01:12:26;;;;;;;11.57;5.18;;;14.90;99.90;;;;;;5032813;28;20053;-68
2023/07/05 01:14:59;;;;;;;13.32;5.25;;;15.00;99.90;;;;;;5032758;28;20498;-80
2023/07/05 01:17:36;;;;;;;13.70;5.65;;;14.90;99.90;;;;;;5037095;28;20483;-81
2023/07/05 01:20:17;;;;;;;9.77;5.10;;;14.90;99.90;;;;;;5019305;28;20049;-80
2023/07/05 01:23:06;;;;;;;13.23;5.40;;;14.90;99.90;;;;;;5034034;28;20086;-79
2023/07/05 01:26:04;;;;;;;15.35;6.10;;;14.90;99.90;;;;;;5032438;28;20041;-80
2023/07/05 01:29:06;;;;;;;10.80;5.75;;;15.00;99.90;;;;;;5018655;28;20376;-83
2023/07/05 01:31:31;;;;;;;12.98;5.97;;;15.00;99.90;;;;;;5032488;28;20057;-83
2023/07/05 01:34:38;;;;;;;14.63;6.65;;;15.00;99.90;;;;;;5032897;28;20091;-83
2023/07/05 01:37:10;;;;;;;22.48;7.28;;;15.00;99.90;;;;;;5033547;28;20045;-82
2023/07/05 01:39:36;;;;;;;13.13;7.00;;;15.00;99.90;;;;;;5032357;28;20616;-82
2023/07/05 01:42:03;;;;;;;12.43;7.07;;;15.00;99.90;;;;;;5032549;28;20045;-84
2023/07/05 01:44:30;;;;;;;12.35;6.25;;;14.90;99.90;;;;;;5032355;28;20099;-83
2023/07/05 01:47:10;;;;;;;12.00;7.28;;;14.90;99.90;;;;;;5015814;28;20083;-83
2023/07/05 01:49:50;;;;;;;16.83;8.20;;;14.90;99.90;;;;;;5032353;28;20494;-84
2023/07/05 01:52:32;;;;;;;14.88;7.63;;;14.80;99.90;;;;;;5031932;28;20091;-83
2023/07/05 01:55:23;;;;;;;17.38;7.63;;;14.70;99.90;;;;;;5032260;28;20561;-84
2023/07/05 01:58:03;;;;;;;17.27;8.07;;;14.70;99.90;;;;;;5032442;28;20077;-84
2023/07/05 02:00:30;;;;;;;21.05;8.75;;;14.70;99.90;;;;;;5033527;28;20037;-84
2023/07/05 02:03:01;;;;;;;20.08;8.23;;;14.60;99.90;;;;;;5016745;28;20041;-83
2023/07/05 02:05:29;;;;;;;25.92;9.23;;;14.60;99.90;;;;;;5032252;28;20052;-84
2023/07/05 02:07:57;;;;;;;20.10;9.30;;;14.50;99.90;;;;;;5014639;28;20057;-83
2023/07/05 02:10:23;;;;;;;17.65;9.20;;;14.50;99.90;;;;;;5031658;28;20068;-84
2023/07/05 02:12:52;;;;;;;13.90;9.02;;;14.40;99.90;;;;;;5015340;28;20056;-82
2023/07/05 02:15:19;;;;;;;16.40;8.15;;;14.40;99.90;;;;;;5031419;28;20084;-82
2023/07/05 02:17:44;;;;;;;13.85;8.63;;;14.40;99.90;;;;;;5031694;28;20057;-82
2023/07/05 02:20:10;;;;;;;22.02;8.65;;;14.40;99.90;;;;;;5015546;28;20042;-83
2023/07/05 02:22:36;;;;;;;19.08;9.55;;;14.30;99.90;;;;;;5032151;28;20482;-81
2023/07/05 02:25:02;;;;;;;19.10;9.30;;;14.30;99.90;;;;;;5015786;28;20046;-84
2023/07/05 02:27:28;;;;;;;13.00;8.80;;;14.30;99.90;;;;;;5015576;28;20061;-85
2023/07/05 02:29:55;;;;;;;17.67;9.38;;;14.30;99.90;;;;;;5015580;28;20053;-81
2023/07/05 02:32:21;;;;;;;17.95;7.93;;;14.20;99.90;;;;;;5031922;28;20045;-82
2023/07/05 02:34:47;;;;;;;16.65;9.98;;;14.20;99.90;;;;;;5014819;28;20046;-80
2023/07/05 02:37:14;;;;;;;19.05;9.60;;;14.30;99.90;;;;;;5031394;28;20045;-81
2023/07/05 02:39:40;;;;;;;16.33;9.25;;;14.20;99.90;;;;;;5031243;28;20073;-80
2023/07/05 02:42:07;;;;;;;22.17;10.95;;;14.20;99.90;;;;;;5019088;28;20049;-80
2023/07/05 02:44:32;;;;;;;17.67;9.00;;;14.20;99.90;;;;;;5035956;28;20103;-83
2023/07/05 02:46:58;;;;;;;21.15;10.40;;;14.20;99.90;;;;;;5016324;28;20124;-81
2023/07/05 02:49:24;;;;;;;20.33;10.18;;;14.20;99.90;;;;;;4998705;28;20038;-84
2023/07/05 02:51:51;;;;;;;19.75;11.88;;;14.20;99.90;;;;;;5031123;28;20052;-82
2023/07/05 02:54:16;;;;;;;18.65;11.00;;;14.20;99.90;;;;;;5031621;28;20049;-82
2023/07/05 02:56:42;;;;;;;16.88;10.48;;;14.20;99.90;;;;;;5016887;28;20163;-84
2023/07/05 02:59:08;;;;;;;28.20;11.57;;;14.20;99.90;;;;;;5016084;28;20045;-77
2023/07/05 03:01:34;;;;;;;22.08;13.43;;;14.20;99.90;;;;;;5033881;28;20128;-78
2023/07/05 03:03:59;;;;;;;20.38;12.02;;;14.20;99.90;;;;;;5034034;28;20046;-80
2023/07/05 03:06:25;;;;;;;22.17;12.20;;;14.10;99.90;;;;;;5017665;28;20482;-80
2023/07/05 03:08:51;;;;;;;20.52;12.82;;;14.00;99.90;;;;;;5017008;28;20120;-80
2023/07/05 03:11:16;;;;;;;19.10;12.00;;;14.00;99.90;;;;;;5020864;28;20077;-80
2023/07/05 03:13:42;;;;;;;21.65;12.10;;;14.00;99.90;;;;;;5021131;28;20068;-79
2023/07/05 03:16:08;;;;;;;21.73;11.95;;;14.00;99.90;;;;;;5022650;28;20049;-80
2023/07/05 03:18:34;;;;;;;20.48;11.93;;;14.00;99.90;;;;;;5022504;28;20084;-81
2023/07/05 03:21:00;;;;;;;29.23;12.80;;;14.00;99.90;;;;;;5020289;28;20195;-80
2023/07/05 03:23:26;;;;;;;27.90;12.82;;;14.00;99.90;;;;;;5018907;28;20056;-81
2023/07/05 03:25:59;;;;;;;20.58;12.80;;;14.00;99.90;;;;;;5034934;28;20053;-83
2023/07/05 03:28:28;;;;;;;23.10;13.05;;;14.10;99.90;;;;;;5035571;28;20099;-80
2023/07/05 03:30:57;;;;;;;22.50;13.35;;;14.10;99.90;;;;;;5036088;28;20041;-78
2023/07/05 03:33:24;;;;;;;28.95;13.38;;;14.10;99.90;;;;;;5041339;28;20076;-78
2023/07/05 03:35:58;;;;;;;27.83;14.05;;;14.10;99.90;;;;;;5036125;28;20566;-78
2023/07/05 03:38:26;;;;;;;21.98;13.98;;;14.10;99.90;;;;;;5050869;28;20533;-80
2023/07/05 03:41:02;;;;;;;24.98;13.40;;;14.10;99.90;;;;;;5033912;28;20107;-81
2023/07/05 03:43:30;;;;;;;21.52;15.25;;;14.10;99.90;;;;;;5034723;28;20064;-81
2023/07/05 03:45:59;;;;;;;24.23;15.52;;;14.10;99.90;;;;;;5034030;28;20045;-78
2023/07/05 03:48:26;;;;;;;25.33;15.23;;;14.10;99.90;;;;;;5035497;28;20130;-79
2023/07/05 03:50:56;;;;;;;20.17;14.00;;;14.10;99.90;;;;;;5017215;28;20056;-81
2023/07/05 03:53:23;;;;;;;23.15;14.88;;;14.10;99.90;;;;;;5033878;28;20049;-82
2023/07/05 03:55:48;;;;;;;27.80;16.75;;;14.10;99.90;;;;;;5033908;28;20060;-82
2023/07/05 03:58:14;;;;;;;24.45;16.50;;;14.10;99.90;;;;;;5035272;28;20049;-80
2023/07/05 04:00:40;;;;;;;25.60;17.20;;;14.10;99.90;;;;;;5017589;28;20479;-78
2023/07/05 04:03:06;;;;;;;19.20;14.65;;;14.10;99.90;;;;;;5017281;28;20180;-79
2023/07/05 04:05:32;;;;;;;23.85;13.10;;;14.10;99.90;;;;;;5017419;28;20138;-80
2023/07/05 04:07:58;;;;;;;23.60;15.68;;;14.20;99.90;;;;;;5033245;28;20436;-80
2023/07/05 04:10:24;;;;;;;25.00;17.35;;;14.20;99.90;;;;;;5034647;28;20048;-80
2023/07/05 04:12:50;;;;;;;30.63;16.58;;;14.20;99.90;;;;;;5034107;28;20060;-81
2023/07/05 04:15:15;;;;;;;26.08;16.38;;;14.20;99.90;;;;;;5016947;28;20052;-83
2023/07/05 04:17:41;;;;;;;25.85;16.13;;;14.20;99.90;;;;;;5017339;28;20049;-85
2023/07/05 04:20:08;;;;;;;24.92;16.20;;;14.20;99.90;;;;;;5017996;28;20075;-83
2023/07/05 04:22:39;;;;;;;12.57;9.02;;;14.30;99.90;;;;;;5016669;28;20053;-82
2023/07/05 04:25:05;;;;;;;19.05;10.57;;;14.30;99.90;;;;;;5033861;28;20053;-81
2023/07/05 04:27:31;;;;;;;12.88;9.73;;;14.40;99.90;;;;;;5033970;28;20478;-79
2023/07/05 04:29:57;;;;;;;13.15;9.07;;;14.40;99.90;;;;;;5033333;28;20136;-79
2023/07/05 04:32:23;;;;;;;13.68;9.13;;;14.40;99.90;;;;;;5017344;28;20046;-78
2023/07/05 04:34:48;;;;;;;13.90;8.90;;;14.50;99.90;;;;;;5032998;28;20100;-79
2023/07/05 04:37:14;;;;;;;17.85;10.13;;;14.50;99.90;;;;;;5033608;28;20080;-78
2023/07/05 04:39:40;;;;;;;12.10;7.75;;;14.60;99.90;;;;;;5016993;28;20088;-83
2023/07/05 04:42:06;;;;;;;14.18;7.97;;;14.60;99.90;;;;;;5017468;28;20045;-78
2023/07/05 04:44:32;;;;;;;14.05;9.18;;;14.60;99.90;;;;;;5033330;28;20037;-79
2023/07/05 04:46:58;;;;;;;13.70;9.13;;;14.70;99.90;;;;;;5016823;28;20050;-78
2023/07/05 04:49:23;;;;;;;11.63;8.98;;;14.60;99.90;;;;;;5033784;28;20069;-80
2023/07/05 04:51:49;;;;;;;15.75;9.00;;;14.70;99.90;;;;;;5000168;28;20053;-79
2023/07/05 04:54:16;;;;;;;11.95;8.40;;;14.70;99.90;;;;;;5016584;28;20057;-80
2023/07/05 04:56:42;;;;;;;12.30;7.30;;;14.70;99.90;;;;;;5033220;28;20092;-84
2023/07/05 04:59:10;;;;;;;11.77;8.93;;;14.70;99.90;;;;;;5033632;28;20144;-80
2023/07/05 05:01:37;;;;;;;13.82;8.23;;;14.80;99.90;;;;;;5033754;28;20065;-80
2023/07/05 05:04:04;;;;;;;9.82;7.32;;;14.80;99.90;;;;;;5033382;28;20245;-80
2023/07/05 05:06:30;;;;;;;9.93;6.90;;;14.80;99.90;;;;;;5016801;28;20045;-79
2023/07/05 05:08:55;;;;;;;11.52;6.70;;;14.80;99.90;;;;;;5032767;28;20052;-79
2023/07/05 05:11:22;;;;;;;14.75;8.10;;;14.80;99.90;;;;;;5033290;28;20046;-78
2023/07/05 05:13:49;;;;;;;13.23;7.75;;;14.80;99.90;;;;;;5035234;28;20098;-78
2023/07/05 05:16:15;;;;;;;11.45;7.32;;;14.80;99.90;;;;;;5036364;28;20462;-78
2023/07/05 05:18:43;;;;;;;7.85;5.35;;;14.80;99.90;;;;;;5033789;28;20042;-79
2023/07/05 05:21:09;;;;;;;10.95;5.00;;;14.70;99.90;;;;;;5016730;28;20057;-78
2023/07/05 05:23:35;;;;;;;8.88;4.82;;;14.70;99.90;;;;;;5033184;28;20053;-79
2023/07/05 05:26:01;;;;;;;7.13;4.60;;;14.60;99.90;;;;;;5032567;28;20045;-79
2023/07/05 05:28:27;;;;;;;10.40;5.50;;;14.60;99.90;;;;;;5033019;28;20049;-78
2023/07/05 05:31:02;;;;;;;8.65;4.40;;;14.60;99.90;;;;;;5032373;28;20049;-79
2023/07/05 05:33:28;;;;;;;6.78;4.25;;;14.50;99.90;;;;;;5031616;28;20128;-80
2023/07/05 05:35:53;;;;;;;6.22;4.18;;;14.50;99.90;;;;;;5015909;28;20128;-80
2023/07/05 05:38:20;;;;;;;11.50;4.20;;;14.50;99.90;;;;;;5032338;28;20045;-79
2023/07/05 05:40:48;;;;;;;7.63;4.47;;;14.60;99.90;;;;;;5033596;28;20049;-79
2023/07/05 05:43:14;;;;;;;6.53;4.63;;;14.80;99.90;;;;;;5033456;28;20099;-79
2023/07/05 05:45:42;;;;;;;6.65;3.60;;;14.90;99.90;;;;;;5032502;28;20052;-79
2023/07/05 05:48:08;;;;;;;7.85;4.45;;;14.90;99.90;;;;;;5033343;28;20120;-79
2023/07/05 05:50:35;;;;;;;6.38;3.92;;;15.10;99.90;;;;;;5025646;28;20077;-82
2023/07/05 05:53:03;;;;;;;8.02;4.15;;;15.50;99.90;;;;;;5041609;28;20402;-80
2023/07/05 05:55:29;;;;;;;6.97;3.63;;;15.70;99.90;;;;;;5032996;28;20411;-81
2023/07/05 05:57:55;;;;;;;8.15;4.07;;;16.40;99.90;;;;;;5033084;28;20061;-81
2023/07/05 06:00:21;;;;;;;6.65;3.97;;;16.60;99.90;;;;;;5031882;28;20190;-82
2023/07/05 06:02:47;;;;;;;7.22;4.72;;;16.60;99.90;;;;;;5032355;28;20056;-79
2023/07/05 06:05:13;;;;;;;6.30;4.13;;;16.20;99.90;;;;;;5031774;28;20394;-81
2023/07/05 06:07:39;;;;;;;8.20;4.07;;;16.10;99.90;;;;;;5032914;28;20046;-80
2023/07/05 06:10:05;;;;;;;7.80;4.00;;;15.80;99.90;;;;;;5047637;28;20570;-80
2023/07/05 06:12:31;;;;;;;5.32;3.97;;;15.70;99.90;;;;;;5015099;28;20041;-82
2023/07/05 06:14:57;;;;;;;5.00;3.65;;;15.80;99.90;;;;;;5014481;28;20132;-83
2023/07/05 06:17:22;;;;;;;7.15;4.20;;;15.90;99.90;;;;;;5031812;28;20045;-83
2023/07/05 06:19:48;;;;;;;7.88;4.38;;;15.90;99.90;;;;;;5031983;28;20399;-81
2023/07/05 06:22:14;;;;;;;6.15;3.95;;;16.10;99.90;;;;;;5033454;28;20395;-80
2023/07/05 06:24:42;;;;;;;8.35;4.10;;;16.20;99.90;;;;;;4999239;28;20060;-76
2023/07/05 06:27:08;;;;;;;5.97;3.75;;;16.30;99.90;;;;;;5014704;28;20081;-80
2023/07/05 06:29:33;;;;;;;6.38;4.13;;;16.20;99.90;;;;;;5015162;28;20100;-78
2023/07/05 06:31:59;;;;;;;6.22;3.75;;;16.00;99.90;;;;;;5014918;28;20089;-78
2023/07/05 06:34:25;;;;;;;7.13;3.58;;;15.80;99.90;;;;;;5014552;28;20122;-79
2023/07/05 06:36:51;;;;;;;4.95;3.10;;;15.70;99.90;;;;;;5015222;28;20057;-84
2023/07/05 06:39:17;;;;;;;7.03;3.78;;;15.70;99.90;;;;;;5047377;28;20077;-76
2023/07/05 06:41:42;;;;;;;6.65;3.97;;;15.70;99.90;;;;;;4998507;28;20084;-78
2023/07/05 06:44:08;;;;;;;6.82;3.78;;;15.80;99.90;;;;;;4998040;28;20399;-78
2023/07/05 06:46:34;;;;;;;6.68;3.80;;;15.90;99.90;;;;;;5030965;28;20080;-80
2023/07/05 06:48:59;;;;;;;5.65;3.83;;;15.70;99.90;;;;;;5014680;28;20053;-78
2023/07/05 06:51:25;;;;;;;6.38;3.55;;;16.00;99.90;;;;;;5031461;28;20048;-78
2023/07/05 06:53:51;;;;;;;12.00;4.22;;;16.50;99.90;;;;;;5031994;28;20140;-76
2023/07/05 06:56:18;;;;;;;5.20;3.33;;;16.60;99.90;;;;;;5030198;28;20048;-78
2023/07/05 06:58:44;;;;;;;7.32;3.40;;;16.50;99.90;;;;;;5014244;28;20049;-78
2023/07/05 07:01:10;;;;;;;5.13;3.20;;;16.40;99.90;;;;;;5013821;28;20426;-74
2023/07/05 07:03:35;;;;;;;5.72;3.30;;;16.30;99.90;;;;;;5032225;28;20056;-73
2023/07/05 07:06:01;;;;;;;5.65;3.45;;;16.10;99.90;;;;;;5030864;28;20045;-72
2023/07/05 07:08:33;;;;;;;7.90;3.70;;;15.90;99.90;;;;;;5031260;28;20128;-82
2023/07/05 07:11:01;;;;;;;6.65;3.38;;;15.80;99.90;;;;;;5032065;28;20045;-78
2023/07/05 07:13:27;;;;;;;5.10;3.10;;;16.10;99.90;;;;;;5015298;28;20045;-84
2023/07/05 07:16:19;;;;;;;7.05;3.28;;;16.90;99.90;;;;;;5031480;28;20095;-86
2023/07/05 07:18:47;;;;;;;7.90;3.70;;;17.90;99.90;;;;;;5029451;28;20459;-86
2023/07/05 07:21:14;;;;;;;6.45;3.63;;;18.70;99.90;;;;;;5032045;28;20053;-83
2023/07/05 07:23:40;;;;;;;5.78;2.80;;;19.20;99.90;;;;;;5031505;28;20095;-85
2023/07/05 07:26:12;;;;;;;5.43;2.88;;;19.50;99.90;;;;;;5031053;28;20069;-85
2023/07/05 07:28:39;;;;;;;6.05;3.38;;;19.70;99.90;;;;;;5031106;28;20041;-82
2023/07/05 07:31:16;;;;;;;6.43;3.75;;;19.70;99.90;;;;;;5014732;28;20056;-82
2023/07/05 07:33:45;;;;;;;5.38;3.47;;;19.10;99.90;;;;;;5031328;28;20050;-84
2023/07/05 07:36:13;;;;;;;6.35;2.90;;;18.70;99.90;;;;;;5031431;28;20179;-84
2023/07/05 07:38:40;;;;;;;6.95;3.03;;;18.10;99.90;;;;;;5032431;28;20049;-84
2023/07/05 07:41:20;;;;;;;7.95;3.08;;;17.70;99.90;;;;;;5015510;28;20056;-83
2023/07/05 07:43:49;;;;;;;5.97;2.92;;;17.20;99.90;;;;;;5031660;28;20056;-83
2023/07/05 07:46:16;;;;;;;4.82;2.20;;;16.90;99.90;;;;;;5030794;28;20061;-83
2023/07/05 07:48:45;;;;;;;5.32;3.17;;;16.80;99.90;;;;;;5031331;28;20053;-81
2023/07/05 07:51:11;;;;;;;5.57;3.05;;;16.60;99.90;;;;;;5033845;28;20054;-82
2023/07/05 07:53:37;;;;;;;4.78;2.50;;;16.60;99.90;;;;;;5035030;28;20056;-82
2023/07/05 07:56:11;;;;;;;4.63;2.85;;;16.40;99.90;;;;;;5035439;28;20065;-85
2023/07/05 07:58:37;;;;;;;4.40;3.00;;;16.30;99.90;;;;;;5034634;28;20394;-86
2023/07/05 08:01:32;;;;;;;4.35;2.20;;;16.20;99.90;;;;;;5036063;28;20045;-84
2023/07/05 08:04:00;;;;;;;4.97;2.92;;;15.90;99.90;;;;;;5035382;28;20057;-82
2023/07/05 08:06:36;;;;;;;3.72;2.40;;;15.60;99.90;;;;;;5042440;28;20302;-84
2023/07/05 08:09:02;;;;;;;4.88;2.55;;;15.40;99.90;;;;;;5044901;28;20049;-83
2023/07/05 08:11:29;;;;;;;4.85;2.95;;;15.00;99.90;;;;;;5046638;28;20041;-86
2023/07/05 08:13:55;;;;;;;3.78;2.35;;;14.90;99.90;;;;;;5028181;28;20069;-86
2023/07/05 08:16:21;;;;;;;3.95;2.33;;;14.70;99.90;;;;;;5022932;28;20048;-86
2023/07/05 08:18:47;;;;;;;5.22;1.80;;;14.60;99.90;;;;;;5054618;28;20055;-84
2023/07/05 08:21:14;;;;;;;3.05;1.95;;;14.50;99.90;;;;;;5018961;28;20049;-88
2023/07/05 08:23:42;;;;;;;3.97;1.77;;;14.40;99.90;;;;;;5021359;28;20163;-87
2023/07/05 08:26:07;;;;;;;2.67;1.40;;;14.20;99.90;;;;;;5041857;28;20057;-87
2023/07/05 08:28:33;;;;;;;5.25;1.55;;;14.10;99.90;;;;;;5017646;28;20053;-82
2023/07/05 08:31:02;;;;;;;2.60;1.40;;;14.00;99.90;;;;;;5034976;28;20041;-83
2023/07/05 08:33:31;;;;;;;4.68;1.90;;;13.90;99.90;;;;;;5033629;28;20049;-82
2023/07/05 08:36:16;;;;;;;2.42;1.60;;;13.70;99.90;;;;;;5034042;28;20507;-82
2023/07/05 08:38:49;;;;;;;4.38;1.73;;;13.50;99.90;;;;;;5035583;28;20092;-85
2023/07/05 08:41:33;;;;;;;2.65;1.30;;;13.40;99.90;;;;;;5051180;28;20045;-85
2023/07/05 08:44:22;;;;;;;2.15;1.30;;;13.20;99.90;;;;;;5034242;28;20540;-86
2023/07/05 08:47:27;;;;;;;2.63;0.98;;;13.10;99.90;;;;;;5017769;28;20140;-87
2023/07/05 08:50:16;;;;;;;2.03;1.15;;;13.10;99.90;;;;;;5034112;28;20410;-84
2023/07/05 08:52:45;;;;;;;2.78;1.40;;;13.00;99.90;;;;;;5033785;28;20132;-84
2023/07/05 08:55:21;;;;;;;3.65;1.38;;;12.90;99.90;;;;;;5032889;28;20053;-80
2023/07/05 08:57:54;;;;;;;2.70;1.35;;;13.00;99.90;;;;;;5016965;28;20102;-83
2023/07/05 09:00:39;;;;;;;2.42;1.25;;;12.90;99.90;;;;;;5034078;28;20059;-89
2023/07/05 09:03:13;;;;;;;3.58;1.40;;;12.90;99.90;;;;;;5033250;28;20084;-75
2023/07/05 09:06:03;;;;;;;3.38;1.30;;;12.80;99.90;;;;;;5032602;28;20053;-75
2023/07/05 09:08:55;;;;;;;2.28;1.50;;;12.80;99.90;;;;;;5033993;28;20117;-83
2023/07/05 09:11:30;;;;;;;3.00;1.20;;;12.80;99.90;;;;;;5034187;28;20060;-76
2023/07/05 09:14:19;;;;;;;7.10;1.80;;;12.80;99.90;;;;;;5016269;28;20730;-76
2023/07/05 09:17:03;;;;;;;2.38;1.40;;;12.80;99.90;;;;;;5032290;28;20045;-80
2023/07/05 09:19:53;;;;;;;4.28;1.70;;;12.70;99.90;;;;;;5030457;28;20569;-78
2023/07/05 09:22:24;;;;;;;3.92;1.60;;;12.70;99.90;;;;;;5031934;28;20138;-80
2023/07/05 09:24:52;;;;;;;3.30;1.50;;;12.60;99.90;;;;;;5031678;28;20049;-81
2023/07/05 09:27:31;;;;;;;5.50;1.92;;;12.70;99.90;;;;;;5030927;28;20049;-81
2023/07/05 09:30:06;;;;;;;7.03;2.03;;;12.70;99.90;;;;;;5031717;28;20059;-79
2023/07/05 09:32:41;;;;;;;5.38;2.08;;;12.70;99.90;;;;;;5036490;28;20049;-86
2023/07/05 09:35:18;;;;;;;4.07;1.67;;;12.80;99.90;;;;;;5031333;28;20152;-79
2023/07/05 09:38:25;;;;;;;9.95;2.08;;;12.90;99.90;;;;;;5031358;28;20672;-83
2023/07/05 09:41:13;;;;;;;11.60;2.17;;;13.00;99.90;;;;;;5006065;28;20053;-76
2023/07/05 09:43:39;;;;;;;7.60;1.90;;;13.20;99.90;;;;;;5048561;28;20050;-82
2023/07/05 09:46:26;;;;;;;4.20;1.38;;;13.30;99.90;;;;;;5032886;28;20405;-81
2023/07/05 09:48:54;;;;;;;11.00;1.65;;;13.40;99.90;;;;;;5049215;28;20037;-79
2023/07/05 09:51:21;;;;;;;5.30;1.17;;;13.50;99.90;;;;;;5015770;28;20426;-76
2023/07/05 09:54:02;;;;;;;5.25;0.90;;;13.50;99.90;;;;;;5031609;28;20139;-73
2023/07/05 09:56:28;;;;;;;4.30;1.23;;;13.50;99.90;;;;;;5032819;28;20063;-75
2023/07/05 09:59:12;;;;;;;7.47;1.02;;;13.60;99.90;;;;;;5032165;28;20053;-78
2023/07/05 10:01:41;;;;;;;6.23;0.80;;;13.70;99.90;;;;;;5031272;28;20057;-79
2023/07/05 10:04:08;;;;;;;6.15;1.10;;;13.70;99.90;;;;;;5031762;28;20394;-77
2023/07/05 10:06:38;;;;;;;5.40;1.33;;;13.70;99.90;;;;;;5031891;28;20100;-78
2023/07/05 10:09:52;;;;;;;3.90;1.00;;;13.80;99.90;;;;;;5032326;28;20130;-75
2023/07/05 10:12:19;;;;;;;2.70;1.02;;;13.80;99.90;;;;;;4997549;28;20061;-79
2023/07/05 10:14:54;;;;;;;5.53;1.08;;;13.90;99.90;;;;;;5032809;28;20060;-78
2023/07/05 10:17:20;;;;;;;1.90;1.10;;;13.90;99.90;;;;;;5028974;28;20053;-77
2023/07/05 10:19:51;;;;;;;3.05;1.02;;;13.90;99.90;;;;;;5030951;28;20113;-79
2023/07/05 10:22:28;;;;;;;3.60;1.00;;;14.00;99.90;;;;;;5048365;28;20053;-74
2023/07/05 10:25:18;;;;;;;4.00;0.60;;;14.10;99.90;;;;;;5039701;28;20057;-75
2023/07/05 10:27:49;;;;;;;3.92;0.80;;;14.20;99.90;;;;;;5031996;28;20069;-75
2023/07/05 10:30:20;;;;;;;6.85;1.10;;;14.40;99.90;;;;;;5032696;28;20132;-76
2023/07/05 10:32:49;;;;;;;6.13;1.52;;;14.60;99.90;;;;;;5031352;28;20498;-81
2023/07/05 10:35:29;;;;;;;2.95;1.17;;;14.80;99.90;;;;;;5028890;28;20571;-76
2023/07/05 10:37:56;;;;;;;4.15;1.00;;;15.00;99.90;;;;;;5028958;28;20414;-76
2023/07/05 10:40:23;;;;;;;4.63;1.30;;;15.00;99.90;;;;;;5030402;28;20060;-77
2023/07/05 10:43:01;;;;;;;5.85;1.15;;;15.10;99.90;;;;;;5030950;28;20055;-75
2023/07/05 10:45:34;;;;;;;3.88;1.17;;;15.10;99.90;;;;;;5031066;28;20167;-77
2023/07/05 10:48:01;;;;;;;4.07;0.98;;;15.10;99.90;;;;;;5032461;28;20410;-77
2023/07/05 10:50:31;;;;;;;4.88;1.30;;;15.20;99.90;;;;;;5030185;28;20131;-78
2023/07/05 10:53:03;;;;;;;2.38;0.85;;;15.30;99.90;;;;;;5030998;28;20136;-75
2023/07/05 10:55:57;;;;;;;6.97;0.95;;;15.40;99.90;;;;;;5030266;28;20132;-77
2023/07/05 10:58:51;;;;;;;7.95;1.25;;;15.50;99.90;;;;;;5023459;28;20574;-76
2023/07/05 11:01:28;;;;;;;2.72;1.08;;;15.70;99.90;;;;;;5003785;28;20156;-71
2023/07/05 11:03:59;;;;;;;4.68;0.95;;;15.80;99.90;;;;;;5030979;28;20394;-71
2023/07/05 11:06:27;;;;;;;3.35;0.85;;;16.00;99.90;;;;;;5030929;28;20049;-71
2023/07/05 11:08:53;;;;;;;5.28;1.10;;;16.20;99.90;;;;;;5014796;28;20049;-71
2023/07/05 11:11:20;;;;;;;2.78;0.98;;;16.40;99.90;;;;;;5014612;28;20057;-71
2023/07/05 11:13:47;;;;;;;3.53;0.90;;;16.40;99.90;;;;;;5031478;28;20125;-70
2023/07/05 11:16:20;;;;;;;2.75;0.77;;;16.60;99.90;;;;;;5031875;28;20132;-70
2023/07/05 11:18:47;;;;;;;3.88;0.95;;;16.70;99.90;;;;;;5046809;28;20064;-71
2023/07/05 11:21:44;;;;;;;6.18;0.98;;;16.80;99.90;;;;;;5030816;28;20399;-71
2023/07/05 11:24:11;;;;;;;3.85;1.08;;;16.90;99.90;;;;;;5030221;28;20049;-72
2023/07/05 11:26:39;;;;;;;2.72;1.30;;;17.00;99.90;;;;;;5013713;28;20045;-73
2023/07/05 11:29:27;;;;;;;3.15;1.08;;;17.10;99.90;;;;;;5029778;28;20487;-71
2023/07/05 11:31:52;;;;;;;5.22;1.33;;;17.20;99.90;;;;;;5016220;28;20046;-71
2023/07/05 11:34:21;;;;;;;2.72;1.23;;;17.30;99.90;;;;;;5035773;28;20048;-71
2023/07/05 11:36:47;;;;;;;3.45;1.90;;;17.30;99.90;;;;;;5034432;28;20510;-70
2023/07/05 11:39:38;;;;;;;3.97;1.40;;;17.30;99.90;;;;;;5034617;28;20041;-71
2023/07/05 11:42:16;;;;;;;5.22;1.70;;;17.40;99.90;;;;;;5034473;28;20049;-71
2023/07/05 11:44:47;;;;;;;3.80;1.35;;;17.40;99.90;;;;;;5034272;28;20049;-72
2023/07/05 11:47:22;;;;;;;4.35;1.40;;;17.50;99.90;;;;;;5034681;28;20137;-71
2023/07/05 11:49:53;;;;;;;5.25;1.50;;;17.50;99.90;;;;;;5035088;28;20443;-71
2023/07/05 11:52:30;;;;;;;9.60;1.70;;;17.50;99.90;;;;;;5033870;28;20139;-71
2023/07/05 11:55:23;;;;;;;7.63;1.52;;;17.40;99.90;;;;;;5035150;28;20054;-71
2023/07/05 11:57:58;;;;;;;6.78;2.00;;;17.40;99.90;;;;;;5034956;28;20061;-71
2023/07/05 12:00:27;;;;;;;11.45;1.92;;;17.40;99.90;;;;;;5034483;28;20064;-73
2023/07/05 12:02:59;;;;;;;7.35;1.48;;;17.50;99.90;;;;;;5033548;28;20045;-71
2023/07/05 12:05:28;;;;;;;6.88;1.50;;;17.50;99.90;;;;;;5035231;28;20392;-71
2023/07/05 12:08:04;;;;;;;7.47;1.80;;;17.60;99.90;;;;;;5045823;28;20623;-75
2023/07/05 12:10:33;;;;;;;6.95;1.88;;;17.70;99.90;;;;;;5033696;28;20053;-71
2023/07/05 12:12:59;;;;;;;7.10;1.58;;;17.70;99.90;;;;;;5034715;28;20053;-69
2023/07/05 12:15:25;;;;;;;10.60;2.50;;;17.70;99.90;;;;;;5033908;28;20156;-69
2023/07/05 12:17:52;;;;;;;6.43;1.92;;;17.70;99.90;;;;;;5033497;28;20045;-70
2023/07/05 12:20:36;;;;;;;8.95;2.22;;;17.40;99.90;;;;;;5033463;28;20045;-70
2023/07/05 12:23:04;;;;;;;10.60;2.65;;;17.00;99.90;;;;;;5033784;28;20057;-70
2023/07/05 12:25:31;;;;;;;13.50;2.58;;;16.60;99.90;;;;;;5033736;28;20056;-70
2023/07/05 12:28:00;;;;;;;9.75;2.50;;;16.40;99.90;;;;;;5049873;28;20119;-70
2023/07/05 12:30:26;;;;;;;9.90;2.55;;;16.00;99.90;;;;;;5034805;28;20049;-70
2023/07/05 12:32:56;;;;;;;7.55;2.08;;;15.80;99.90;;;;;;5016699;28;20394;-70
2023/07/05 12:35:24;;;;;;;8.15;2.78;;;15.60;99.90;;;;;;5033591;28;20057;-71
2023/07/05 12:37:52;;;;;;;6.78;1.83;;;15.50;99.90;;;;;;5033327;28;20136;-71
2023/07/05 12:40:26;;;;;;;6.50;2.40;;;15.30;99.90;;;;;;5050062;28;20099;-72
2023/07/05 12:43:04;;;;;;;6.78;2.15;;;15.10;99.90;;;;;;5032797;28;20050;-69
2023/07/05 12:45:35;;;;;;;10.57;2.50;;;14.90;99.90;;;;;;5035589;28;20049;-70
2023/07/05 12:48:25;;;;;;;8.15;2.42;;;14.80;99.90;;;;;;5033397;28;20053;-69
2023/07/05 12:51:04;;;;;;;7.90;1.90;;;14.60;99.90;;;;;;5016710;28;20141;-70
2023/07/05 12:53:30;;;;;;;6.50;1.80;;;14.60;99.90;;;;;;5033166;28;20473;-71
2023/07/05 12:56:00;;;;;;;5.53;2.05;;;14.50;99.90;;;;;;5049384;28;20045;-71
2023/07/05 12:58:27;;;;;;;5.70;1.90;;;14.50;99.90;;;;;;5032320;28;20081;-71